Time;durP1;ratioP1;P1;durP2;ratioP2;P2;SDS_P1;SDS_P2;PMS_P1;PMS_P2;Temp;Humidity;BMP_temperature;BMP_pressure;BME280_temperature;BME280_humidity;BME280_pressure;Samples;Min_cycle;Max_cycle;Signal;HPM_P1;HPM_P2
2023/02/02 00:00:09;;;;;;;12.50;3.93;;;;;;;10.33;51.45;99384.47;7006205;28;20705;-80
2023/02/02 00:03:31;;;;;;;6.60;3.20;;;;;;;10.09;51.49;99387.50;7005757;28;20268;-80
2023/02/02 00:06:53;;;;;;;6.67;3.20;;;;;;;9.92;52.08;99371.72;7004332;28;20202;-81
2023/02/02 00:10:14;;;;;;;9.43;3.40;;;;;;;9.83;52.49;99381.75;7005213;28;20280;-82
2023/02/02 00:13:36;;;;;;;9.47;3.67;;;;;;;10.50;51.15;99385.09;7008202;28;20354;-79
2023/02/02 00:16:59;;;;;;;8.73;3.10;;;;;;;10.29;51.09;99374.28;7008546;28;20225;-80
2023/02/02 00:20:22;;;;;;;7.20;2.90;;;;;;;10.00;51.55;99377.00;7008650;28;20316;-80
2023/02/02 00:23:44;;;;;;;6.87;3.47;;;;;;;9.89;52.26;99369.38;7008961;28;20207;-80
2023/02/02 00:27:05;;;;;;;4.63;2.97;;;;;;;10.37;50.74;99339.13;7008277;28;20316;-80
2023/02/02 00:30:27;;;;;;;5.77;3.20;;;;;;;10.36;50.93;99362.56;7006979;28;20292;-79
2023/02/02 00:33:51;;;;;;;10.33;3.63;;;;;;;9.86;53.05;99385.94;7008033;28;20350;-79
2023/02/02 00:37:12;;;;;;;8.90;3.50;;;;;;;10.12;52.18;99368.28;7007566;28;20267;-79
2023/02/02 00:40:33;;;;;;;5.30;3.00;;;;;;;10.44;51.47;99367.81;7007996;28;20903;-79
2023/02/02 00:47:34;;;;;;;6.07;3.13;;;;;;;10.53;51.10;99377.47;7006879;28;20226;-79
2023/02/02 00:50:57;;;;;;;11.43;3.60;;;;;;;9.80;53.18;99370.50;7007324;28;20282;-80
2023/02/02 00:54:18;;;;;;;6.63;2.90;;;;;;;9.92;53.15;99369.00;7007317;28;20365;-80
2023/02/02 00:57:40;;;;;;;6.33;3.40;;;;;;;10.01;52.89;99366.03;7007119;28;20310;-80
2023/02/02 01:01:01;;;;;;;6.40;3.37;;;;;;;9.93;52.42;99360.72;7007096;28;20225;-80
2023/02/02 01:04:23;;;;;;;5.30;2.60;;;;;;;10.01;51.57;99287.91;7006459;28;20267;-81
2023/02/02 01:07:46;;;;;;;6.97;3.53;;;;;;;9.91;52.63;99352.00;7006158;28;20351;-80
2023/02/02 01:11:08;;;;;;;8.60;2.97;;;;;;;9.88;52.36;99330.84;7006652;28;20280;-79
2023/02/02 01:14:30;;;;;;;8.13;2.73;;;;;;;10.05;52.49;99358.44;7006356;28;20816;-80
2023/02/02 01:17:51;;;;;;;6.77;3.00;;;;;;;10.57;50.70;99375.22;7006565;28;20225;-80
2023/02/02 01:21:13;;;;;;;7.07;2.90;;;;;;;10.42;51.46;99344.78;7006167;28;20316;-80
2023/02/02 01:24:35;;;;;;;7.57;3.13;;;;;;;10.56;51.13;99379.78;7005894;28;20791;-80
2023/02/02 01:27:57;;;;;;;5.23;2.70;;;;;;;10.66;50.88;99371.38;7006643;28;20308;-79
2023/02/02 01:31:19;;;;;;;7.50;2.70;;;;;;;9.91;51.75;99316.16;7004932;28;20206;-80
2023/02/02 01:34:42;;;;;;;3.57;2.60;;;;;;;10.89;50.80;99380.09;7006108;28;20224;-80
2023/02/02 01:38:03;;;;;;;7.47;2.67;;;;;;;11.02;50.15;99366.72;7006575;28;20449;-80
2023/02/02 01:41:27;;;;;;;6.10;3.10;;;;;;;10.58;51.20;99377.69;7006358;28;20323;-79
2023/02/02 01:45:06;;;;;;;8.60;3.20;;;;;;;10.36;51.91;99359.84;7005442;28;20212;-79
2023/02/02 01:48:30;;;;;;;10.63;3.63;;;;;;;10.52;51.99;99365.00;7005892;28;20267;-79
2023/02/02 01:51:54;;;;;;;4.77;2.80;;;;;;;10.31;52.15;99388.38;7005331;28;20263;-79
2023/02/02 01:55:19;;;;;;;7.37;2.93;;;;;;;10.44;52.34;99377.75;7004882;28;20258;-79
2023/02/02 01:58:42;;;;;;;7.03;2.70;;;;;;;10.38;52.32;99382.06;7005728;28;20225;-80
2023/02/02 02:02:04;;;;;;;4.00;2.60;;;;;;;10.40;51.90;99350.34;7005846;28;20228;-80
2023/02/02 02:05:30;;;;;;;6.23;2.77;;;;;;;10.45;52.82;99376.75;7004933;28;20266;-80
2023/02/02 02:08:55;;;;;;;5.17;2.93;;;;;;;10.35;52.65;99350.09;7005432;28;20713;-80
2023/02/02 02:12:17;;;;;;;4.53;2.80;;;;;;;10.38;53.28;99360.50;7006042;28;20589;-79
2023/02/02 02:28:22;;;;;;;3.00;2.40;;;;;;;10.41;53.17;99360.13;6986077;28;20229;-79
2023/02/02 02:31:59;;;;;;;7.73;2.73;;;;;;;10.43;53.36;99373.38;7010810;28;20294;-80
2023/02/02 02:35:29;;;;;;;4.30;2.57;;;;;;;10.33;53.80;99370.19;7011036;28;20275;-80
2023/02/02 02:38:54;;;;;;;3.57;2.40;;;;;;;10.47;53.70;99345.03;7011860;28;20292;-80
2023/02/02 02:42:18;;;;;;;3.00;2.67;;;;;;;10.34;54.12;99329.53;7012137;28;20835;-79
2023/02/02 02:45:41;;;;;;;6.97;2.53;;;;;;;10.11;55.79;99363.06;7011601;28;20294;-80
2023/02/02 02:49:04;;;;;;;4.57;2.97;;;;;;;10.09;56.34;99357.03;7012309;28;20221;-79
2023/02/02 02:52:25;;;;;;;5.17;2.50;;;;;;;10.22;56.86;99360.72;7012808;28;20290;-79
2023/02/02 02:55:53;;;;;;;5.23;2.83;;;;;;;10.25;55.81;99362.19;7013631;28;20404;-79
2023/02/02 02:59:25;;;;;;;6.67;2.87;;;;;;;9.86;57.49;99359.81;7015352;28;20249;-79
2023/02/02 03:02:50;;;;;;;7.40;2.67;;;;;;;10.26;56.80;99362.00;7015827;28;20270;-79
2023/02/02 03:06:21;;;;;;;7.07;2.70;;;;;;;10.38;55.89;99367.72;7010715;28;20451;-80
2023/02/02 03:09:43;;;;;;;6.57;3.27;;;;;;;10.06;56.32;99369.03;7016929;28;20304;-79
2023/02/02 03:13:07;;;;;;;6.67;3.30;;;;;;;10.17;56.97;99365.81;7048767;28;20212;-80
2023/02/02 03:16:29;;;;;;;2.30;2.20;;;;;;;10.31;55.75;99335.34;7041653;28;20798;-79
2023/02/02 03:19:50;;;;;;;6.80;2.60;;;;;;;10.35;56.28;99360.03;7039522;28;20769;-79
2023/02/02 03:23:13;;;;;;;6.93;2.73;;;;;;;9.68;57.16;99324.34;7039973;28;20311;-79
2023/02/02 03:26:35;;;;;;;3.33;2.30;;;;;;;10.41;56.06;99367.38;7039514;28;20294;-79
2023/02/02 03:29:57;;;;;;;4.57;2.37;;;;;;;10.47;55.53;99342.34;7037600;28;20288;-80
2023/02/02 03:33:18;;;;;;;5.87;2.60;;;;;;;10.25;55.63;99354.09;7038860;28;20283;-80
2023/02/02 03:36:40;;;;;;;4.57;2.70;;;;;;;10.32;56.25;99350.47;7038462;28;20292;-79
2023/02/02 03:40:03;;;;;;;4.80;2.40;;;;;;;10.35;55.97;99376.22;7038719;28;20321;-79
2023/02/02 03:43:25;;;;;;;5.57;2.57;;;;;;;10.46;55.22;99346.06;7038660;28;20705;-80
2023/02/02 03:46:46;;;;;;;8.10;3.17;;;;;;;10.53;55.50;99372.09;7037395;28;20284;-80
2023/02/02 03:50:09;;;;;;;4.50;2.50;;;;;;;9.94;56.46;99375.03;7038633;28;20326;-81
2023/02/02 03:53:30;;;;;;;6.33;2.40;;;;;;;10.03;56.60;99379.31;7038216;28;20358;-80
2023/02/02 03:56:53;;;;;;;5.87;2.60;;;;;;;10.29;55.11;99385.06;7037033;28;20213;-80
2023/02/02 04:00:15;;;;;;;3.30;2.20;;;;;;;10.29;55.00;99360.81;7037520;28;20611;-80
2023/02/02 04:03:37;;;;;;;5.57;2.90;;;;;;;10.46;54.87;99378.41;7036594;28;20313;-79
2023/02/02 04:07:00;;;;;;;3.33;2.10;;;;;;;10.26;55.58;99390.81;7036366;28;20295;-80
2023/02/02 04:10:21;;;;;;;5.13;2.33;;;;;;;10.48;54.97;99390.69;7036845;28;20232;-80
2023/02/02 04:13:44;;;;;;;3.33;2.10;;;;;;;10.35;54.86;99387.00;7037067;28;20241;-80
2023/02/02 04:17:06;;;;;;;3.30;1.90;;;;;;;10.53;54.24;99392.81;7036094;28;20298;-80
2023/02/02 04:20:27;;;;;;;3.50;2.57;;;;;;;10.84;53.91;99394.19;7035177;28;20276;-80
2023/02/02 04:23:49;;;;;;;8.23;2.30;;;;;;;10.59;54.05;99383.94;7034680;28;20298;-80
2023/02/02 04:27:10;;;;;;;4.13;2.67;;;;;;;10.68;54.37;99396.28;7034445;28;20224;-80
2023/02/02 04:30:33;;;;;;;3.70;2.07;;;;;;;10.46;54.75;99391.91;7034810;28;20288;-81
2023/02/02 04:33:55;;;;;;;2.37;1.90;;;;;;;9.87;54.56;99301.41;7034872;28;20670;-80
2023/02/02 04:37:16;;;;;;;4.77;2.20;;;;;;;10.74;54.43;99384.75;7033396;28;20374;-80
2023/02/02 04:40:38;;;;;;;3.83;2.40;;;;;;;10.58;54.36;99383.09;7033932;28;20234;-80
2023/02/02 04:44:00;;;;;;;2.20;2.00;;;;;;;10.71;53.79;99412.09;7033734;28;20244;-80
2023/02/02 04:47:23;;;;;;;3.07;2.00;;;;;;;10.81;53.61;99424.22;7033266;28;20717;-79
2023/02/02 04:50:44;;;;;;;5.17;2.50;;;;;;;10.66;54.65;99425.28;7033994;28;20287;-80
2023/02/02 04:54:06;;;;;;;2.77;2.37;;;;;;;10.78;54.32;99410.28;7034161;28;20212;-82
2023/02/02 04:57:27;;;;;;;5.03;2.07;;;;;;;10.70;54.26;99422.03;7033973;28;20228;-80
2023/02/02 05:00:49;;;;;;;2.90;2.40;;;;;;;10.70;53.92;99416.63;7033386;28;20205;-80
2023/02/02 05:04:12;;;;;;;2.93;2.40;;;;;;;10.57;54.98;99421.88;7034304;28;20304;-79
2023/02/02 05:07:33;;;;;;;3.83;2.60;;;;;;;11.09;53.40;99435.94;7032870;28;20346;-80
2023/02/02 05:10:55;;;;;;;5.80;2.60;;;;;;;10.67;53.78;99375.72;7033579;28;20208;-80
2023/02/02 05:14:18;;;;;;;4.40;2.50;;;;;;;10.93;53.51;99441.56;7031888;28;20697;-80
2023/02/02 05:17:39;;;;;;;4.73;2.57;;;;;;;11.12;53.22;99450.91;7033029;28;20225;-80
2023/02/02 05:21:03;;;;;;;4.60;2.33;;;;;;;10.68;54.62;99455.63;7031778;28;20295;-81
2023/02/02 05:24:26;;;;;;;9.43;3.30;;;;;;;10.78;54.05;99454.28;7031960;28;20292;-79
2023/02/02 05:27:47;;;;;;;5.10;2.70;;;;;;;10.78;54.13;99451.59;7032039;28;20222;-81
2023/02/02 05:31:09;;;;;;;7.10;2.80;;;;;;;10.84;53.77;99444.59;7035724;28;20303;-80
2023/02/02 05:34:31;;;;;;;4.90;2.67;;;;;;;11.17;53.33;99448.47;7030962;28;20294;-80
2023/02/02 05:37:54;;;;;;;6.83;2.93;;;;;;;11.01;53.91;99454.09;7030740;28;20311;-80
2023/02/02 05:41:15;;;;;;;5.77;2.77;;;;;;;10.73;54.39;99448.63;7030752;28;20642;-80
2023/02/02 05:44:37;;;;;;;8.93;2.87;;;;;;;10.67;54.70;99448.53;7030096;28;20268;-80
2023/02/02 05:47:58;;;;;;;5.77;3.20;;;;;;;10.59;55.17;99472.94;7030093;28;20281;-80
2023/02/02 05:51:22;;;;;;;4.13;2.80;;;;;;;10.65;54.92;99462.25;7029626;28;20606;-81
2023/02/02 05:54:44;;;;;;;6.40;2.73;;;;;;;10.82;54.36;99460.97;7027675;28;20253;-81
2023/02/02 05:58:06;;;;;;;10.47;2.77;;;;;;;10.94;53.76;99464.00;7029943;28;20281;-80
2023/02/02 06:01:27;;;;;;;6.73;3.03;;;;;;;10.31;55.78;99480.03;7029173;28;20232;-80
2023/02/02 06:04:49;;;;;;;8.60;3.40;;;;;;;10.30;55.18;99452.25;7029163;28;20253;-81
2023/02/02 06:08:10;;;;;;;9.20;3.57;;;;;;;10.49;55.57;99467.84;7029584;28;20841;-80
2023/02/02 06:11:33;;;;;;;10.37;3.33;;;;;;;10.91;54.37;99477.84;7015241;28;20209;-81
2023/02/02 06:14:55;;;;;;;10.57;3.80;;;;;;;10.66;55.06;99449.56;7003911;28;20209;-80
2023/02/02 06:18:16;;;;;;;4.10;3.07;;;;;;;10.96;54.45;99476.28;7029440;28;20335;-81
2023/02/02 06:21:38;;;;;;;9.00;3.00;;;;;;;10.98;53.96;99479.59;7028846;28;20365;-81
2023/02/02 06:24:59;;;;;;;8.53;3.20;;;;;;;11.23;52.97;99480.91;7030260;28;20218;-80
2023/02/02 06:28:22;;;;;;;7.73;3.33;;;;;;;10.98;53.59;99476.91;7016226;28;20711;-81
2023/02/02 06:31:44;;;;;;;4.47;2.87;;;;;;;11.02;53.78;99482.75;7002235;28;20200;-80
2023/02/02 06:35:06;;;;;;;10.40;4.00;;;;;;;10.46;54.15;99462.81;7000875;28;20270;-80
2023/02/02 06:38:28;;;;;;;6.57;2.80;;;;;;;10.86;54.49;99499.19;7003031;28;20717;-80
2023/02/02 06:41:50;;;;;;;6.13;2.70;;;;;;;11.03;53.77;99485.28;7000313;28;20320;-81
2023/02/02 06:45:13;;;;;;;6.93;3.03;;;;;;;11.29;53.15;99496.34;7012011;28;20248;-80
2023/02/02 06:48:35;;;;;;;8.27;2.97;;;;;;;10.64;54.63;99506.38;7010334;28;20374;-80
2023/02/02 06:51:56;;;;;;;8.17;3.10;;;;;;;10.35;55.20;99484.88;7031333;28;20216;-80
2023/02/02 06:55:19;;;;;;;9.27;3.67;;;;;;;10.93;53.49;99521.69;7031295;28;20201;-79
2023/02/02 06:58:41;;;;;;;10.47;3.83;;;;;;;11.03;53.83;99517.66;7031359;28;20327;-80
2023/02/02 07:02:04;;;;;;;7.07;2.93;;;;;;;10.63;54.76;99495.81;7014939;28;20229;-80
2023/02/02 07:05:27;;;;;;;8.70;3.87;;;;;;;10.71;53.79;99463.31;7006656;28;20374;-80
2023/02/02 07:08:49;;;;;;;11.03;3.87;;;;;;;10.66;54.61;99496.25;7009178;28;20217;-80
2023/02/02 07:12:11;;;;;;;11.30;3.40;;;;;;;10.50;55.48;99511.81;7011053;28;20237;-81
2023/02/02 07:15:32;;;;;;;8.70;3.67;;;;;;;11.16;53.80;99508.88;7009893;28;20339;-81
2023/02/02 07:18:55;;;;;;;8.90;3.53;;;;;;;10.55;53.81;99448.22;7026664;28;20760;-80
2023/02/02 07:22:17;;;;;;;8.27;2.97;;;;;;;11.14;53.50;99514.47;7042083;28;20277;-81
2023/02/02 07:25:38;;;;;;;5.93;3.13;;;;;;;11.10;52.93;99515.03;7037071;28;20330;-81
2023/02/02 07:29:00;;;;;;;11.03;4.43;;;;;;;10.94;53.65;99513.41;7021174;28;20363;-81
2023/02/02 07:32:21;;;;;;;6.23;2.87;;;;;;;11.00;53.41;99512.66;7013935;28;20225;-80
2023/02/02 07:35:44;;;;;;;5.40;3.03;;;;;;;10.89;53.35;99506.91;7014411;28;20757;-80
2023/02/02 07:39:06;;;;;;;5.40;2.87;;;;;;;10.63;54.25;99507.41;7014091;28;20255;-81
2023/02/02 07:42:28;;;;;;;5.13;2.73;;;;;;;11.27;52.37;99503.78;7012883;28;20229;-80
2023/02/02 07:45:49;;;;;;;3.83;2.63;;;;;;;10.69;54.07;99525.53;7014331;28;20296;-80
2023/02/02 07:49:12;;;;;;;5.47;2.67;;;;;;;10.80;53.92;99513.44;7014134;28;20222;-80
2023/02/02 07:52:35;;;;;;;5.60;2.30;;;;;;;11.16;53.24;99530.47;7014067;28;20209;-80
2023/02/02 07:56:06;;;;;;;5.67;2.80;;;;;;;11.12;53.38;99510.28;7012973;28;20683;-81
2023/02/02 07:59:28;;;;;;;4.73;2.47;;;;;;;11.23;52.80;99502.50;7010736;28;20577;-79
2023/02/02 08:02:49;;;;;;;4.63;2.53;;;;;;;11.20;52.21;99499.34;7006770;28;20288;-79
2023/02/02 08:06:13;;;;;;;3.60;2.47;;;;;;;10.86;53.40;99513.50;7006325;28;20269;-79
2023/02/02 08:09:36;;;;;;;2.67;2.33;;;;;;;11.16;53.00;99508.88;7006925;28;20312;-79
2023/02/02 08:12:57;;;;;;;4.63;2.83;;;;;;;10.43;53.48;99451.56;7005906;28;20274;-80
2023/02/02 08:16:20;;;;;;;5.07;2.70;;;;;;;10.80;53.66;99492.69;7004910;28;20342;-80
2023/02/02 08:19:41;;;;;;;2.87;2.23;;;;;;;11.02;53.46;99509.75;7005829;28;20764;-79
2023/02/02 08:23:03;;;;;;;4.33;2.40;;;;;;;10.71;53.42;99460.63;7006524;28;20267;-79
2023/02/02 08:26:27;;;;;;;2.80;2.30;;;;;;;10.96;53.74;99510.50;7005237;28;20288;-79
2023/02/02 08:29:49;;;;;;;6.03;2.97;;;;;;;10.69;54.11;99520.13;7005604;28;20367;-80
2023/02/02 08:33:10;;;;;;;3.87;2.50;;;;;;;10.89;54.13;99526.63;7005773;28;20269;-79
2023/02/02 08:36:34;;;;;;;5.27;2.83;;;;;;;10.84;54.89;99530.91;7004928;28;20201;-81
2023/02/02 08:39:55;;;;;;;3.47;2.47;;;;;;;10.84;54.21;99547.94;7005176;28;20225;-80
2023/02/02 08:43:18;;;;;;;4.80;2.87;;;;;;;10.77;54.43;99551.56;7004951;28;20297;-79
2023/02/02 08:46:40;;;;;;;5.33;2.80;;;;;;;10.80;54.29;99537.72;7004629;28;20237;-79
2023/02/02 08:50:01;;;;;;;4.97;2.77;;;;;;;10.91;53.68;99546.16;7005339;28;20217;-79
2023/02/02 08:53:24;;;;;;;3.00;2.70;;;;;;;10.45;55.85;99566.28;7005230;28;20370;-80
2023/02/02 08:56:45;;;;;;;6.03;2.90;;;;;;;10.84;54.89;99566.81;7004640;28;20268;-79
2023/02/02 09:00:10;;;;;;;6.87;2.83;;;;;;;10.94;54.78;99575.47;7004846;28;20316;-80
2023/02/02 09:03:32;;;;;;;4.97;2.57;;;;;;;10.68;55.32;99588.59;7004688;28;20222;-79
2023/02/02 09:06:53;;;;;;;9.23;3.40;;;;;;;10.56;55.43;99573.91;7004268;28;20273;-79
2023/02/02 09:10:15;;;;;;;5.33;3.03;;;;;;;11.10;54.50;99555.50;7005094;28;20313;-81
2023/02/02 09:13:37;;;;;;;5.53;2.93;;;;;;;11.07;54.77;99575.63;7004726;28;20277;-80
2023/02/02 09:17:00;;;;;;;3.53;2.97;;;;;;;11.53;53.42;99584.22;7004072;28;20212;-79
2023/02/02 09:20:22;;;;;;;6.10;2.90;;;;;;;11.43;53.09;99587.25;7004130;28;20354;-79
2023/02/02 09:23:44;;;;;;;6.17;2.93;;;;;;;10.58;55.90;99589.91;7004621;28;20210;-79
2023/02/02 09:27:06;;;;;;;9.37;2.87;;;;;;;10.59;55.17;99581.63;7003917;28;20691;-81
2023/02/02 09:30:27;;;;;;;6.77;3.60;;;;;;;10.63;54.73;99512.81;7004439;28;20347;-80
2023/02/02 09:33:50;;;;;;;7.30;2.80;;;;;;;10.72;54.67;99589.91;7004296;28;20290;-80
2023/02/02 09:37:12;;;;;;;8.50;3.60;;;;;;;10.74;54.75;99568.97;7003697;28;20293;-82
2023/02/02 09:40:34;;;;;;;3.57;2.53;;;;;;;10.93;54.38;99589.13;7004733;28;20235;-80
2023/02/02 09:44:02;;;;;;;7.37;3.07;;;;;;;11.02;54.54;99596.09;7004445;28;20698;-81
2023/02/02 09:47:25;;;;;;;10.67;3.70;;;;;;;11.01;54.30;99592.56;7004085;28;20257;-80
2023/02/02 09:50:50;;;;;;;10.13;3.60;;;;;;;11.16;54.38;99581.75;7004184;28;20241;-81
2023/02/02 09:54:18;;;;;;;7.27;3.70;;;;;;;11.08;53.45;99553.00;7003855;28;20182;-81
2023/02/02 09:57:43;;;;;;;6.93;3.07;;;;;;;11.30;53.18;99606.00;7003640;28;20221;-80
2023/02/02 10:01:08;;;;;;;16.10;3.50;;;;;;;11.12;53.94;99619.06;7004208;28;20272;-80
2023/02/02 10:04:32;;;;;;;7.53;3.30;;;;;;;10.78;55.17;99610.72;7003172;28;20686;-81
2023/02/02 10:07:58;;;;;;;8.13;3.07;;;;;;;10.95;54.81;99619.47;7003046;28;20262;-81
2023/02/02 10:11:27;;;;;;;6.80;3.23;;;;;;;11.15;55.00;99628.66;7003810;28;20254;-80
2023/02/02 10:14:52;;;;;;;7.10;3.27;;;;;;;10.79;55.05;99608.84;7003192;28;20186;-81
2023/02/02 10:18:18;;;;;;;5.60;2.70;;;;;;;11.05;55.07;99614.63;7019707;28;20763;-80
2023/02/02 10:21:44;;;;;;;5.53;3.23;;;;;;;11.17;54.79;99627.41;7032548;28;20209;-80
2023/02/02 10:25:12;;;;;;;6.83;3.20;;;;;;;11.15;54.82;99618.69;7031760;28;20573;-80
2023/02/02 10:28:43;;;;;;;8.83;3.53;;;;;;;11.30;54.46;99624.91;7031302;28;20292;-80
2023/02/02 10:32:12;;;;;;;5.87;3.23;;;;;;;11.06;54.62;99587.44;7031923;28;20241;-80
2023/02/02 10:35:39;;;;;;;7.90;3.50;;;;;;;10.84;55.18;99628.03;7031313;28;20298;-80
2023/02/02 10:39:03;;;;;;;11.73;3.70;;;;;;;11.41;54.67;99626.25;7032014;28;20712;-80
2023/02/02 10:42:32;;;;;;;9.23;3.70;;;;;;;11.39;54.73;99623.75;7037500;28;20350;-80
2023/02/02 10:45:54;;;;;;;6.43;3.37;;;;;;;10.84;55.79;99645.06;7040670;28;20276;-79
2023/02/02 10:49:22;;;;;;;7.90;3.80;;;;;;;11.12;56.09;99608.28;7040889;28;20645;-81
2023/02/02 10:52:47;;;;;;;8.13;3.47;;;;;;;11.06;56.85;99616.28;7040537;28;20281;-80
2023/02/02 10:56:12;;;;;;;9.83;3.37;;;;;;;11.16;56.98;99622.22;7039381;28;20257;-79
2023/02/02 10:59:40;;;;;;;8.27;3.17;;;;;;;10.89;57.58;99628.31;7039619;28;20221;-80
2023/02/02 11:03:03;;;;;;;5.73;3.47;;;;;;;11.51;56.30;99643.00;7039865;28;20205;-79
2023/02/02 11:10:04;;;;;;;7.97;3.50;;;;;;;11.24;56.48;99617.56;7039556;28;20224;-81
2023/02/02 11:13:29;;;;;;;9.57;4.13;;;;;;;11.76;55.74;99642.47;7039460;28;20304;-79
2023/02/02 11:17:02;;;;;;;9.43;5.17;;;;;;;11.53;55.70;99633.69;7037857;28;20197;-79
2023/02/02 11:20:31;;;;;;;5.53;3.03;;;;;;;11.21;56.52;99630.59;7037432;28;20338;-79
2023/02/02 11:23:55;;;;;;;9.13;4.47;;;;;;;11.59;55.55;99630.25;7038795;28;20350;-80
2023/02/02 11:27:19;;;;;;;5.90;2.80;;;;;;;11.21;56.05;99636.81;7037426;28;20319;-80
2023/02/02 11:30:41;;;;;;;6.93;3.17;;;;;;;11.12;56.07;99637.97;7039381;28;20295;-79
2023/02/02 11:34:16;;;;;;;4.80;2.77;;;;;;;10.95;55.81;99603.28;7038283;28;20654;-80
2023/02/02 11:37:38;;;;;;;10.40;3.10;;;;;;;11.02;55.28;99636.56;7038195;28;20693;-79
2023/02/02 11:41:02;;;;;;;8.03;3.00;;;;;;;10.92;55.88;99638.72;7037326;28;20242;-79
2023/02/02 11:44:26;;;;;;;15.93;9.97;;;;;;;11.40;55.09;99628.13;7037680;28;20233;-80
2023/02/02 11:47:51;;;;;;;5.53;4.23;;;;;;;11.40;55.15;99633.50;7038346;28;20339;-80
2023/02/02 11:51:22;;;;;;;9.93;3.57;;;;;;;11.36;55.51;99628.69;7038818;28;20623;-80
2023/02/02 11:54:47;;;;;;;10.23;6.13;;;;;;;11.37;55.55;99623.09;7037858;28;20603;-80
2023/02/02 11:58:18;;;;;;;6.07;3.10;;;;;;;11.70;54.32;99631.59;7038174;28;20225;-79
2023/02/02 12:01:40;;;;;;;10.13;3.33;;;;;;;11.46;54.64;99624.66;7038331;28;20185;-80
2023/02/02 12:05:30;;;;;;;13.80;6.37;;;;;;;11.45;54.54;99624.88;7037116;28;20229;-80
2023/02/02 12:08:55;;;;;;;11.90;7.07;;;;;;;11.41;55.32;99643.31;7037478;28;20270;-80
2023/02/02 12:12:27;;;;;;;7.37;3.90;;;;;;;11.40;55.46;99624.59;7037028;28;20280;-81
2023/02/02 12:15:56;;;;;;;8.33;2.87;;;;;;;10.98;56.43;99627.19;7033888;28;20272;-80
2023/02/02 12:19:31;;;;;;;4.87;2.50;;;;;;;11.31;55.30;99631.97;7033826;28;20296;-80
2023/02/02 12:23:40;;;;;;;6.03;4.30;;;;;;;11.10;55.14;99615.72;7034011;28;20684;-80
2023/02/02 12:27:17;;;;;;;6.90;3.50;;;;;;;11.20;54.99;99634.31;6945846;28;20259;-80
2023/02/02 12:30:43;;;;;;;8.37;3.23;;;;;;;10.96;55.76;99623.81;6972006;28;20720;-81
2023/02/02 12:34:10;;;;;;;7.80;3.00;;;;;;;10.51;56.92;99627.53;7040481;28;20224;-80
2023/02/02 12:37:42;;;;;;;6.30;2.63;;;;;;;10.55;56.59;99609.13;7032602;28;20248;-80
2023/02/02 12:41:16;;;;;;;6.63;3.63;;;;;;;10.82;56.02;99630.06;7036859;28;20276;-79
2023/02/02 12:44:46;;;;;;;6.97;3.50;;;;;;;10.63;57.20;99626.06;7033257;28;20276;-79
2023/02/02 12:48:19;;;;;;;6.87;4.40;;;;;;;10.78;56.69;99628.75;7031447;28;20220;-80
2023/02/02 12:51:53;;;;;;;8.03;3.27;;;;;;;10.61;57.56;99633.53;7025670;28;20257;-80
2023/02/02 12:55:18;;;;;;;6.77;3.10;;;;;;;10.59;57.57;99618.53;7005350;28;20693;-80
2023/02/02 12:58:44;;;;;;;8.47;4.30;;;;;;;10.20;59.42;99626.00;7005668;28;20322;-80
2023/02/02 13:02:12;;;;;;;4.03;3.30;;;;;;;10.64;58.36;99616.94;7004977;28;20653;-80
2023/02/02 13:05:47;;;;;;;4.33;3.13;;;;;;;10.75;57.30;99594.09;7008897;28;20692;-80
2023/02/02 13:09:12;;;;;;;3.93;2.83;;;;;;;11.13;57.13;99615.34;7004805;28;20711;-79
2023/02/02 13:12:37;;;;;;;7.63;3.10;;;;;;;10.56;58.49;99621.63;7005521;28;20370;-81
2023/02/02 13:16:02;;;;;;;4.57;3.03;;;;;;;10.37;58.55;99587.09;7004127;28;20339;-81
2023/02/02 13:19:29;;;;;;;11.33;5.07;;;;;;;10.92;57.82;99626.06;7005300;28;20306;-80
2023/02/02 13:22:54;;;;;;;4.30;3.10;;;;;;;10.36;59.38;99632.09;7005209;28;20776;-80
2023/02/02 13:26:18;;;;;;;10.97;4.57;;;;;;;10.64;58.51;99584.59;7004824;28;20639;-79
2023/02/02 13:29:44;;;;;;;7.73;3.50;;;;;;;10.73;59.09;99626.63;7004669;28;20702;-79
2023/02/02 13:33:10;;;;;;;6.50;3.20;;;;;;;10.98;58.16;99637.97;7005142;28;20193;-80
2023/02/02 13:36:37;;;;;;;7.60;2.80;;;;;;;10.88;58.58;99640.97;7003813;28;20252;-80
2023/02/02 13:40:01;;;;;;;12.00;3.60;;;;;;;10.71;58.78;99633.22;7005061;28;20234;-80
2023/02/02 13:43:31;;;;;;;3.10;2.90;;;;;;;10.85;58.00;99629.69;7004060;28;20282;-79
2023/02/02 13:46:57;;;;;;;5.87;3.23;;;;;;;10.95;57.67;99641.88;7002350;28;20275;-80
2023/02/02 13:50:20;;;;;;;8.83;5.57;;;;;;;10.96;57.20;99653.50;7004559;28;20358;-80
2023/02/02 13:53:54;;;;;;;10.43;3.70;;;;;;;10.88;57.33;99650.91;7003906;28;20300;-80
2023/02/02 13:57:24;;;;;;;7.13;3.83;;;;;;;10.69;57.58;99663.09;7003550;28;20320;-79
2023/02/02 14:00:47;;;;;;;6.53;4.20;;;;;;;11.24;56.51;99652.66;7004454;28;20272;-81
2023/02/02 14:04:20;;;;;;;6.23;2.90;;;;;;;11.01;57.33;99678.91;7003947;28;20236;-79
2023/02/02 14:07:43;;;;;;;9.77;2.70;;;;;;;11.15;56.33;99667.25;7003952;28;20228;-81
2023/02/02 14:11:08;;;;;;;7.80;3.50;;;;;;;11.28;56.62;99683.63;7003771;28;20209;-80
2023/02/02 14:14:33;;;;;;;10.13;3.60;;;;;;;10.99;56.50;99661.25;7004704;28;20243;-80
2023/02/02 14:17:55;;;;;;;6.27;3.03;;;;;;;11.20;56.50;99666.69;7009817;28;20226;-80
2023/02/02 14:22:04;;;;;;;4.90;2.60;;;;;;;11.36;56.00;99672.75;7009398;28;20206;-80
2023/02/02 14:25:50;;;;;;;9.60;2.80;;;;;;;11.35;54.88;99656.72;7008908;28;20209;-80
2023/02/02 14:29:41;;;;;;;6.63;3.03;;;;;;;11.71;55.08;99671.94;7007993;28;20222;-80
2023/02/02 14:33:31;;;;;;;9.73;3.60;;;;;;;11.51;54.74;99676.22;7007344;28;20216;-80
2023/02/02 14:36:59;;;;;;;8.40;3.80;;;;;;;11.31;55.64;99677.00;7006960;28;20214;-80
2023/02/02 14:40:32;;;;;;;8.60;4.03;;;;;;;11.36;55.68;99678.13;7007422;28;20553;-78
2023/02/02 14:43:54;;;;;;;6.67;4.63;;;;;;;11.83;54.32;99670.41;7008272;28;20680;-79
2023/02/02 14:47:45;;;;;;;11.00;5.30;;;;;;;11.62;55.12;99691.97;7007703;28;20777;-80
2023/02/02 14:51:12;;;;;;;10.20;3.67;;;;;;;11.08;56.35;99696.03;7008455;28;20252;-79
2023/02/02 14:54:37;;;;;;;12.00;4.60;;;;;;;11.29;55.83;99695.28;7008690;28;20651;-80
2023/02/02 14:58:01;;;;;;;7.17;3.93;;;;;;;11.33;55.88;99699.28;7008755;28;20222;-79
2023/02/02 15:01:26;;;;;;;9.23;3.03;;;;;;;11.38;55.13;99696.81;7008656;28;20693;-80
2023/02/02 15:04:49;;;;;;;7.23;3.40;;;;;;;11.66;54.64;99695.13;7008121;28;20221;-80
2023/02/02 15:08:24;;;;;;;6.33;3.00;;;;;;;11.32;55.07;99700.28;7008401;28;20358;-79
2023/02/02 15:12:18;;;;;;;12.23;3.30;;;;;;;11.70;53.88;99704.53;7008072;28;20367;-80
2023/02/02 15:15:42;;;;;;;7.27;3.37;;;;;;;11.91;52.93;99708.09;7007452;28;20334;-80
2023/02/02 15:19:14;;;;;;;6.07;3.10;;;;;;;11.54;53.54;99678.56;7008227;28;20232;-79
2023/02/02 15:22:41;;;;;;;5.07;3.10;;;;;;;11.47;54.04;99685.75;7007466;28;20182;-80
2023/02/02 15:26:05;;;;;;;7.67;3.53;;;;;;;11.63;53.83;99715.25;7006999;28;20256;-80
2023/02/02 15:29:37;;;;;;;11.30;3.30;;;;;;;11.33;53.46;99704.69;7007816;28;20221;-79
2023/02/02 15:33:03;;;;;;;7.57;3.27;;;;;;;11.86;52.80;99713.25;7007954;28;20185;-79
2023/02/02 15:36:26;;;;;;;9.37;3.47;;;;;;;11.88;51.89;99713.06;7007366;28;20186;-81
2023/02/02 15:39:51;;;;;;;6.17;3.67;;;;;;;12.28;52.02;99739.47;7007258;28;20213;-81
2023/02/02 15:43:13;;;;;;;8.77;3.33;;;;;;;11.69;52.70;99727.19;7016363;28;20232;-80
2023/02/02 15:46:35;;;;;;;10.50;3.60;;;;;;;11.61;53.45;99757.00;7033325;28;20232;-80
2023/02/02 15:49:58;;;;;;;11.00;3.50;;;;;;;11.39;53.21;99755.22;7034867;28;20704;-81
2023/02/02 15:53:22;;;;;;;7.80;3.70;;;;;;;11.28;53.60;99742.19;7029385;28;20666;-79
2023/02/02 15:56:45;;;;;;;7.37;3.00;;;;;;;11.35;53.05;99754.78;7024326;28;20209;-80
2023/02/02 16:00:24;;;;;;;10.17;3.70;;;;;;;11.32;53.63;99774.03;7035069;28;20370;-80
2023/02/02 16:03:49;;;;;;;8.13;4.60;;;;;;;11.25;53.60;99785.75;7034959;28;20356;-81
2023/02/02 16:07:13;;;;;;;10.90;4.27;;;;;;;11.44;53.12;99772.53;7034639;28;20704;-80
2023/02/02 16:10:35;;;;;;;6.77;4.17;;;;;;;11.42;53.35;99776.44;7034350;28;20268;-80
2023/02/02 16:14:00;;;;;;;7.30;3.47;;;;;;;11.55;52.67;99782.88;7034356;28;20293;-80
2023/02/02 16:17:24;;;;;;;5.13;2.90;;;;;;;11.64;52.73;99783.63;7033921;28;20260;-80
2023/02/02 16:20:46;;;;;;;7.37;2.77;;;;;;;11.56;52.74;99798.03;7034361;28;20204;-81